sensor_id;sensor_type;location;lat;lon;timestamp;P1;durP1;ratioP1;P2;durP2;ratioP2
29984;SDS011;17387;42.690;23.328;2023-08-30T00:00:13;13.00;;;9.38;;
29984;SDS011;17387;42.690;23.328;2023-08-30T00:02:39;12.95;;;9.10;;
29984;SDS011;17387;42.690;23.328;2023-08-30T00:05:04;13.73;;;8.52;;
29984;SDS011;17387;42.690;23.328;2023-08-30T00:07:30;12.65;;;8.57;;
29984;SDS011;17387;42.690;23.328;2023-08-30T00:09:58;13.02;;;8.70;;
29984;SDS011;17387;42.690;23.328;2023-08-30T00:12:24;12.23;;;8.80;;
29984;SDS011;17387;42.690;23.328;2023-08-30T00:14:52;11.68;;;8.55;;
29984;SDS011;17387;42.690;23.328;2023-08-30T00:17:18;13.73;;;9.20;;
29984;SDS011;17387;42.690;23.328;2023-08-30T00:19:44;12.20;;;8.82;;
29984;SDS011;17387;42.690;23.328;2023-08-30T00:22:10;12.15;;;8.80;;
29984;SDS011;17387;42.690;23.328;2023-08-30T00:24:35;14.25;;;7.75;;
29984;SDS011;17387;42.690;23.328;2023-08-30T00:27:01;11.25;;;7.45;;
29984;SDS011;17387;42.690;23.328;2023-08-30T00:29:26;10.18;;;7.38;;
29984;SDS011;17387;42.690;23.328;2023-08-30T00:31:52;11.68;;;7.97;;
29984;SDS011;17387;42.690;23.328;2023-08-30T00:34:17;11.30;;;7.70;;
29984;SDS011;17387;42.690;23.328;2023-08-30T00:36:42;13.95;;;8.10;;
29984;SDS011;17387;42.690;23.328;2023-08-30T00:39:07;10.43;;;7.80;;
29984;SDS011;17387;42.690;23.328;2023-08-30T00:41:33;11.75;;;8.38;;
29984;SDS011;17387;42.690;23.328;2023-08-30T00:43:59;10.88;;;7.43;;
29984;SDS011;17387;42.690;23.328;2023-08-30T00:46:25;14.30;;;8.25;;
29984;SDS011;17387;42.690;23.328;2023-08-30T00:48:50;14.48;;;8.02;;
29984;SDS011;17387;42.690;23.328;2023-08-30T00:51:15;14.13;;;7.90;;
29984;SDS011;17387;42.690;23.328;2023-08-30T00:53:40;11.15;;;6.93;;
29984;SDS011;17387;42.690;23.328;2023-08-30T00:56:06;11.65;;;7.47;;
29984;SDS011;17387;42.690;23.328;2023-08-30T00:58:31;15.50;;;7.30;;
29984;SDS011;17387;42.690;23.328;2023-08-30T01:00:56;10.00;;;7.07;;
29984;SDS011;17387;42.690;23.328;2023-08-30T01:03:22;12.98;;;7.18;;
29984;SDS011;17387;42.690;23.328;2023-08-30T01:05:48;10.13;;;7.10;;
29984;SDS011;17387;42.690;23.328;2023-08-30T01:08:13;12.85;;;7.05;;
29984;SDS011;17387;42.690;23.328;2023-08-30T01:13:44;11.10;;;6.65;;
29984;SDS011;17387;42.690;23.328;2023-08-30T01:16:11;12.32;;;7.68;;
29984;SDS011;17387;42.690;23.328;2023-08-30T01:18:37;11.38;;;7.47;;
29984;SDS011;17387;42.690;23.328;2023-08-30T01:21:03;14.30;;;7.38;;
29984;SDS011;17387;42.690;23.328;2023-08-30T01:23:49;14.85;;;7.03;;
29984;SDS011;17387;42.690;23.328;2023-08-30T01:31:14;12.43;;;7.25;;
29984;SDS011;17387;42.690;23.328;2023-08-30T01:33:40;10.15;;;6.85;;
29984;SDS011;17387;42.690;23.328;2023-08-30T01:36:06;10.13;;;6.90;;
29984;SDS011;17387;42.690;23.328;2023-08-30T01:38:31;8.85;;;6.30;;
29984;SDS011;17387;42.690;23.328;2023-08-30T01:40:57;11.80;;;6.97;;
29984;SDS011;17387;42.690;23.328;2023-08-30T01:43:24;9.82;;;6.47;;
29984;SDS011;17387;42.690;23.328;2023-08-30T01:45:51;10.00;;;6.35;;
29984;SDS011;17387;42.690;23.328;2023-08-30T01:48:16;10.80;;;7.22;;
29984;SDS011;17387;42.690;23.328;2023-08-30T01:50:43;11.70;;;7.25;;
29984;SDS011;17387;42.690;23.328;2023-08-30T01:53:09;11.80;;;7.10;;
29984;SDS011;17387;42.690;23.328;2023-08-30T01:55:35;12.02;;;7.43;;
29984;SDS011;17387;42.690;23.328;2023-08-30T01:58:01;11.85;;;7.13;;
29984;SDS011;17387;42.690;23.328;2023-08-30T02:00:27;11.48;;;6.93;;
29984;SDS011;17387;42.690;23.328;2023-08-30T02:02:52;11.95;;;6.40;;
29984;SDS011;17387;42.690;23.328;2023-08-30T02:05:17;10.18;;;6.78;;
29984;SDS011;17387;42.690;23.328;2023-08-30T02:07:48;11.80;;;6.73;;
29984;SDS011;17387;42.690;23.328;2023-08-30T02:10:17;10.57;;;6.93;;
29984;SDS011;17387;42.690;23.328;2023-08-30T02:12:49;9.80;;;7.20;;
29984;SDS011;17387;42.690;23.328;2023-08-30T02:15:14;12.82;;;7.22;;
29984;SDS011;17387;42.690;23.328;2023-08-30T02:17:40;12.57;;;7.63;;
29984;SDS011;17387;42.690;23.328;2023-08-30T02:20:06;10.95;;;7.03;;
29984;SDS011;17387;42.690;23.328;2023-08-30T02:22:31;14.20;;;7.03;;
29984;SDS011;17387;42.690;23.328;2023-08-30T02:24:57;11.07;;;7.43;;
29984;SDS011;17387;42.690;23.328;2023-08-30T02:27:23;11.23;;;7.47;;
29984;SDS011;17387;42.690;23.328;2023-08-30T02:29:48;10.65;;;7.38;;
29984;SDS011;17387;42.690;23.328;2023-08-30T02:32:13;11.10;;;7.93;;
29984;SDS011;17387;42.690;23.328;2023-08-30T02:34:40;13.75;;;7.30;;
29984;SDS011;17387;42.690;23.328;2023-08-30T02:37:05;11.87;;;7.57;;
29984;SDS011;17387;42.690;23.328;2023-08-30T02:39:30;9.97;;;8.00;;
29984;SDS011;17387;42.690;23.328;2023-08-30T02:41:55;11.97;;;7.37;;
29984;SDS011;17387;42.690;23.328;2023-08-30T02:44:23;10.63;;;7.25;;
29984;SDS011;17387;42.690;23.328;2023-08-30T02:46:48;12.38;;;7.50;;
29984;SDS011;17387;42.690;23.328;2023-08-30T02:49:13;12.63;;;7.85;;
29984;SDS011;17387;42.690;23.328;2023-08-30T02:51:39;10.23;;;6.95;;
29984;SDS011;17387;42.690;23.328;2023-08-30T02:54:04;16.20;;;7.63;;
29984;SDS011;17387;42.690;23.328;2023-08-30T02:56:29;12.18;;;7.40;;
29984;SDS011;17387;42.690;23.328;2023-08-30T02:58:54;13.13;;;7.83;;
29984;SDS011;17387;42.690;23.328;2023-08-30T03:01:20;12.30;;;7.67;;
29984;SDS011;17387;42.690;23.328;2023-08-30T03:03:45;12.38;;;7.63;;
29984;SDS011;17387;42.690;23.328;2023-08-30T03:06:11;11.38;;;7.43;;
29984;SDS011;17387;42.690;23.328;2023-08-30T03:08:37;13.25;;;7.97;;
29984;SDS011;17387;42.690;23.328;2023-08-30T03:11:12;12.40;;;7.43;;
29984;SDS011;17387;42.690;23.328;2023-08-30T03:13:37;12.30;;;7.65;;
29984;SDS011;17387;42.690;23.328;2023-08-30T03:16:12;11.00;;;7.88;;
29984;SDS011;17387;42.690;23.328;2023-08-30T03:18:38;15.38;;;7.80;;
29984;SDS011;17387;42.690;23.328;2023-08-30T03:21:03;13.07;;;7.72;;
29984;SDS011;17387;42.690;23.328;2023-08-30T03:23:29;9.25;;;7.07;;
29984;SDS011;17387;42.690;23.328;2023-08-30T03:25:55;12.23;;;7.65;;
29984;SDS011;17387;42.690;23.328;2023-08-30T03:28:21;14.38;;;7.45;;
29984;SDS011;17387;42.690;23.328;2023-08-30T03:30:46;10.98;;;6.95;;
29984;SDS011;17387;42.690;23.328;2023-08-30T03:33:11;12.90;;;7.33;;
29984;SDS011;17387;42.690;23.328;2023-08-30T03:35:38;12.73;;;6.55;;
29984;SDS011;17387;42.690;23.328;2023-08-30T03:38:03;10.30;;;6.00;;
29984;SDS011;17387;42.690;23.328;2023-08-30T03:40:29;10.32;;;6.72;;
29984;SDS011;17387;42.690;23.328;2023-08-30T03:42:54;11.38;;;6.80;;
29984;SDS011;17387;42.690;23.328;2023-08-30T03:45:19;11.37;;;6.57;;
29984;SDS011;17387;42.690;23.328;2023-08-30T03:47:45;9.52;;;6.35;;
29984;SDS011;17387;42.690;23.328;2023-08-30T03:50:10;12.25;;;7.25;;
29984;SDS011;17387;42.690;23.328;2023-08-30T03:52:35;14.20;;;8.82;;
29984;SDS011;17387;42.690;23.328;2023-08-30T03:55:01;20.17;;;10.02;;
29984;SDS011;17387;42.690;23.328;2023-08-30T03:57:27;18.67;;;9.35;;
29984;SDS011;17387;42.690;23.328;2023-08-30T03:59:52;20.80;;;10.25;;
29984;SDS011;17387;42.690;23.328;2023-08-30T04:02:18;16.98;;;8.63;;
29984;SDS011;17387;42.690;23.328;2023-08-30T04:04:43;15.23;;;8.80;;
29984;SDS011;17387;42.690;23.328;2023-08-30T04:07:08;13.25;;;8.70;;
29984;SDS011;17387;42.690;23.328;2023-08-30T04:09:33;14.85;;;7.95;;
29984;SDS011;17387;42.690;23.328;2023-08-30T04:11:59;13.63;;;8.90;;
29984;SDS011;17387;42.690;23.328;2023-08-30T04:14:25;17.80;;;10.75;;
29984;SDS011;17387;42.690;23.328;2023-08-30T04:16:50;14.20;;;10.80;;
29984;SDS011;17387;42.690;23.328;2023-08-30T04:19:15;16.95;;;10.70;;
29984;SDS011;17387;42.690;23.328;2023-08-30T04:21:41;15.43;;;11.32;;
29984;SDS011;17387;42.690;23.328;2023-08-30T04:24:06;16.95;;;11.50;;
29984;SDS011;17387;42.690;23.328;2023-08-30T04:26:31;16.02;;;11.00;;
29984;SDS011;17387;42.690;23.328;2023-08-30T04:28:57;20.02;;;11.85;;
29984;SDS011;17387;42.690;23.328;2023-08-30T04:31:22;19.98;;;11.98;;
29984;SDS011;17387;42.690;23.328;2023-08-30T04:33:47;20.30;;;12.43;;
29984;SDS011;17387;42.690;23.328;2023-08-30T04:36:13;20.98;;;12.45;;
29984;SDS011;17387;42.690;23.328;2023-08-30T04:38:38;21.45;;;12.80;;
29984;SDS011;17387;42.690;23.328;2023-08-30T04:41:03;19.88;;;12.30;;
29984;SDS011;17387;42.690;23.328;2023-08-30T04:43:28;23.98;;;12.90;;
29984;SDS011;17387;42.690;23.328;2023-08-30T04:45:56;18.70;;;11.70;;
29984;SDS011;17387;42.690;23.328;2023-08-30T04:48:31;18.73;;;11.90;;
29984;SDS011;17387;42.690;23.328;2023-08-30T04:51:00;17.48;;;11.65;;
29984;SDS011;17387;42.690;23.328;2023-08-30T04:53:26;19.88;;;11.45;;
29984;SDS011;17387;42.690;23.328;2023-08-30T04:55:51;15.38;;;12.20;;
29984;SDS011;17387;42.690;23.328;2023-08-30T04:58:16;19.80;;;11.15;;
29984;SDS011;17387;42.690;23.328;2023-08-30T05:00:41;21.80;;;10.57;;
29984;SDS011;17387;42.690;23.328;2023-08-30T05:03:07;17.55;;;10.93;;
29984;SDS011;17387;42.690;23.328;2023-08-30T05:05:32;13.35;;;9.35;;
29984;SDS011;17387;42.690;23.328;2023-08-30T05:07:59;19.45;;;10.40;;
29984;SDS011;17387;42.690;23.328;2023-08-30T05:10:24;18.70;;;10.65;;
29984;SDS011;17387;42.690;23.328;2023-08-30T05:12:50;14.20;;;6.37;;
29984;SDS011;17387;42.690;23.328;2023-08-30T05:15:17;12.75;;;6.00;;
29984;SDS011;17387;42.690;23.328;2023-08-30T05:17:42;16.77;;;5.47;;
29984;SDS011;17387;42.690;23.328;2023-08-30T05:20:07;11.38;;;4.65;;
29984;SDS011;17387;42.690;23.328;2023-08-30T05:22:33;10.43;;;5.00;;
29984;SDS011;17387;42.690;23.328;2023-08-30T05:24:58;7.38;;;4.53;;
29984;SDS011;17387;42.690;23.328;2023-08-30T05:27:23;8.77;;;4.43;;
29984;SDS011;17387;42.690;23.328;2023-08-30T05:29:49;13.57;;;5.05;;
29984;SDS011;17387;42.690;23.328;2023-08-30T05:32:14;11.70;;;5.10;;
29984;SDS011;17387;42.690;23.328;2023-08-30T05:34:39;11.23;;;4.77;;
29984;SDS011;17387;42.690;23.328;2023-08-30T05:37:04;11.17;;;4.60;;
29984;SDS011;17387;42.690;23.328;2023-08-30T05:39:29;9.23;;;4.35;;
29984;SDS011;17387;42.690;23.328;2023-08-30T05:41:55;8.80;;;4.50;;
29984;SDS011;17387;42.690;23.328;2023-08-30T05:44:20;10.68;;;4.93;;
29984;SDS011;17387;42.690;23.328;2023-08-30T05:46:45;10.00;;;4.78;;
29984;SDS011;17387;42.690;23.328;2023-08-30T05:49:11;10.05;;;4.65;;
29984;SDS011;17387;42.690;23.328;2023-08-30T05:51:36;9.02;;;4.60;;
29984;SDS011;17387;42.690;23.328;2023-08-30T05:54:01;8.25;;;4.80;;
29984;SDS011;17387;42.690;23.328;2023-08-30T05:56:27;12.20;;;5.20;;
29984;SDS011;17387;42.690;23.328;2023-08-30T05:58:52;11.27;;;4.90;;
29984;SDS011;17387;42.690;23.328;2023-08-30T06:01:18;10.30;;;5.10;;
29984;SDS011;17387;42.690;23.328;2023-08-30T06:03:44;11.00;;;4.82;;
29984;SDS011;17387;42.690;23.328;2023-08-30T06:06:10;8.38;;;4.53;;
29984;SDS011;17387;42.690;23.328;2023-08-30T06:08:36;10.98;;;5.03;;
29984;SDS011;17387;42.690;23.328;2023-08-30T06:11:01;10.90;;;5.27;;
29984;SDS011;17387;42.690;23.328;2023-08-30T06:13:26;7.87;;;4.50;;
29984;SDS011;17387;42.690;23.328;2023-08-30T06:15:51;11.33;;;5.50;;
29984;SDS011;17387;42.690;23.328;2023-08-30T06:18:17;10.18;;;5.25;;
29984;SDS011;17387;42.690;23.328;2023-08-30T06:20:42;9.43;;;4.45;;
29984;SDS011;17387;42.690;23.328;2023-08-30T06:23:07;10.27;;;4.30;;
29984;SDS011;17387;42.690;23.328;2023-08-30T06:25:33;6.78;;;4.28;;
29984;SDS011;17387;42.690;23.328;2023-08-30T06:27:58;8.97;;;4.47;;
29984;SDS011;17387;42.690;23.328;2023-08-30T06:30:27;7.75;;;4.20;;
29984;SDS011;17387;42.690;23.328;2023-08-30T06:32:54;6.95;;;4.38;;
29984;SDS011;17387;42.690;23.328;2023-08-30T06:35:19;9.27;;;4.90;;
29984;SDS011;17387;42.690;23.328;2023-08-30T06:37:44;8.17;;;4.40;;
29984;SDS011;17387;42.690;23.328;2023-08-30T06:40:10;6.37;;;4.10;;
29984;SDS011;17387;42.690;23.328;2023-08-30T06:42:35;10.45;;;4.80;;
29984;SDS011;17387;42.690;23.328;2023-08-30T06:45:01;7.73;;;4.53;;
29984;SDS011;17387;42.690;23.328;2023-08-30T06:47:26;12.00;;;4.85;;
29984;SDS011;17387;42.690;23.328;2023-08-30T06:49:52;10.73;;;4.97;;
29984;SDS011;17387;42.690;23.328;2023-08-30T06:52:17;7.63;;;4.47;;
29984;SDS011;17387;42.690;23.328;2023-08-30T06:54:42;5.97;;;4.28;;
29984;SDS011;17387;42.690;23.328;2023-08-30T06:57:07;8.77;;;4.83;;
29984;SDS011;17387;42.690;23.328;2023-08-30T06:59:34;9.98;;;5.07;;
29984;SDS011;17387;42.690;23.328;2023-08-30T07:01:59;7.97;;;4.30;;
29984;SDS011;17387;42.690;23.328;2023-08-30T07:04:24;7.68;;;4.40;;
29984;SDS011;17387;42.690;23.328;2023-08-30T07:06:50;7.32;;;4.13;;
29984;SDS011;17387;42.690;23.328;2023-08-30T07:09:15;8.25;;;4.70;;
29984;SDS011;17387;42.690;23.328;2023-08-30T07:11:42;10.27;;;4.50;;
29984;SDS011;17387;42.690;23.328;2023-08-30T07:14:09;8.82;;;4.55;;
29984;SDS011;17387;42.690;23.328;2023-08-30T07:16:34;7.80;;;4.28;;
29984;SDS011;17387;42.690;23.328;2023-08-30T07:18:59;10.38;;;4.72;;
29984;SDS011;17387;42.690;23.328;2023-08-30T07:21:26;24.10;;;11.73;;
29984;SDS011;17387;42.690;23.328;2023-08-30T07:23:51;14.13;;;5.23;;
29984;SDS011;17387;42.690;23.328;2023-08-30T07:26:17;11.20;;;4.82;;
29984;SDS011;17387;42.690;23.328;2023-08-30T07:28:42;9.02;;;4.43;;
29984;SDS011;17387;42.690;23.328;2023-08-30T07:31:07;7.23;;;4.53;;
29984;SDS011;17387;42.690;23.328;2023-08-30T07:33:33;24.42;;;7.72;;
29984;SDS011;17387;42.690;23.328;2023-08-30T07:35:58;7.32;;;4.97;;
29984;SDS011;17387;42.690;23.328;2023-08-30T07:38:24;13.10;;;5.87;;
29984;SDS011;17387;42.690;23.328;2023-08-30T07:40:49;19.45;;;8.32;;
29984;SDS011;17387;42.690;23.328;2023-08-30T07:43:14;7.55;;;4.47;;
29984;SDS011;17387;42.690;23.328;2023-08-30T07:45:39;9.67;;;4.83;;
29984;SDS011;17387;42.690;23.328;2023-08-30T07:48:05;9.10;;;5.10;;
29984;SDS011;17387;42.690;23.328;2023-08-30T07:50:30;10.48;;;5.63;;
29984;SDS011;17387;42.690;23.328;2023-08-30T07:52:55;16.95;;;8.75;;
29984;SDS011;17387;42.690;23.328;2023-08-30T07:55:20;9.50;;;5.47;;
29984;SDS011;17387;42.690;23.328;2023-08-30T07:57:46;10.75;;;5.00;;
29984;SDS011;17387;42.690;23.328;2023-08-30T08:00:14;15.48;;;5.78;;
29984;SDS011;17387;42.690;23.328;2023-08-30T08:02:39;20.42;;;8.13;;
29984;SDS011;17387;42.690;23.328;2023-08-30T08:05:05;22.50;;;7.85;;
29984;SDS011;17387;42.690;23.328;2023-08-30T08:07:31;13.68;;;5.93;;
29984;SDS011;17387;42.690;23.328;2023-08-30T08:09:56;32.33;;;14.88;;
29984;SDS011;17387;42.690;23.328;2023-08-30T08:12:21;9.30;;;4.60;;
29984;SDS011;17387;42.690;23.328;2023-08-30T08:14:47;7.47;;;3.47;;
29984;SDS011;17387;42.690;23.328;2023-08-30T08:17:12;7.73;;;3.73;;
29984;SDS011;17387;42.690;23.328;2023-08-30T08:19:37;11.37;;;4.87;;
29984;SDS011;17387;42.690;23.328;2023-08-30T08:22:04;9.13;;;4.72;;
29984;SDS011;17387;42.690;23.328;2023-08-30T08:24:30;8.48;;;5.03;;
29984;SDS011;17387;42.690;23.328;2023-08-30T08:26:55;10.53;;;5.37;;
29984;SDS011;17387;42.690;23.328;2023-08-30T08:29:20;10.00;;;4.37;;
29984;SDS011;17387;42.690;23.328;2023-08-30T08:31:45;7.57;;;4.03;;
29984;SDS011;17387;42.690;23.328;2023-08-30T08:34:11;7.40;;;4.13;;
29984;SDS011;17387;42.690;23.328;2023-08-30T08:36:41;11.75;;;4.72;;
29984;SDS011;17387;42.690;23.328;2023-08-30T08:39:07;11.60;;;4.20;;
29984;SDS011;17387;42.690;23.328;2023-08-30T08:41:35;8.32;;;3.35;;
29984;SDS011;17387;42.690;23.328;2023-08-30T08:44:01;9.48;;;3.70;;
29984;SDS011;17387;42.690;23.328;2023-08-30T08:46:29;8.48;;;3.50;;
29984;SDS011;17387;42.690;23.328;2023-08-30T08:48:55;8.52;;;3.25;;
29984;SDS011;17387;42.690;23.328;2023-08-30T08:51:20;7.22;;;3.58;;
29984;SDS011;17387;42.690;23.328;2023-08-30T08:53:46;7.45;;;3.40;;
29984;SDS011;17387;42.690;23.328;2023-08-30T08:56:12;6.63;;;3.95;;
29984;SDS011;17387;42.690;23.328;2023-08-30T08:58:37;8.88;;;3.88;;
29984;SDS011;17387;42.690;23.328;2023-08-30T09:01:03;8.02;;;4.22;;
29984;SDS011;17387;42.690;23.328;2023-08-30T09:03:29;7.53;;;4.05;;
29984;SDS011;17387;42.690;23.328;2023-08-30T09:05:54;8.03;;;4.20;;
29984;SDS011;17387;42.690;23.328;2023-08-30T09:08:20;8.90;;;4.00;;
29984;SDS011;17387;42.690;23.328;2023-08-30T09:10:49;9.45;;;4.00;;
29984;SDS011;17387;42.690;23.328;2023-08-30T09:13:15;6.53;;;3.88;;
29984;SDS011;17387;42.690;23.328;2023-08-30T09:15:41;9.68;;;4.30;;
29984;SDS011;17387;42.690;23.328;2023-08-30T09:18:14;9.10;;;4.63;;
29984;SDS011;17387;42.690;23.328;2023-08-30T09:20:39;9.68;;;4.18;;
29984;SDS011;17387;42.690;23.328;2023-08-30T09:23:05;7.40;;;3.90;;
29984;SDS011;17387;42.690;23.328;2023-08-30T09:25:30;10.17;;;4.33;;
29984;SDS011;17387;42.690;23.328;2023-08-30T09:27:58;8.03;;;4.27;;
29984;SDS011;17387;42.690;23.328;2023-08-30T09:30:26;7.32;;;3.80;;
29984;SDS011;17387;42.690;23.328;2023-08-30T09:32:52;7.43;;;4.03;;
29984;SDS011;17387;42.690;23.328;2023-08-30T09:35:17;8.97;;;4.37;;
29984;SDS011;17387;42.690;23.328;2023-08-30T09:37:45;9.98;;;4.97;;
29984;SDS011;17387;42.690;23.328;2023-08-30T09:40:10;7.85;;;4.10;;
29984;SDS011;17387;42.690;23.328;2023-08-30T09:42:40;8.60;;;4.80;;
29984;SDS011;17387;42.690;23.328;2023-08-30T09:45:06;11.10;;;4.63;;
29984;SDS011;17387;42.690;23.328;2023-08-30T09:47:42;5.78;;;3.97;;
29984;SDS011;17387;42.690;23.328;2023-08-30T09:50:10;11.98;;;4.07;;
29984;SDS011;17387;42.690;23.328;2023-08-30T09:52:36;19.07;;;9.97;;
29984;SDS011;17387;42.690;23.328;2023-08-30T09:55:02;12.30;;;7.95;;
29984;SDS011;17387;42.690;23.328;2023-08-30T09:57:27;6.63;;;4.45;;
29984;SDS011;17387;42.690;23.328;2023-08-30T09:59:53;12.25;;;6.45;;
29984;SDS011;17387;42.690;23.328;2023-08-30T10:02:19;10.23;;;4.75;;
29984;SDS011;17387;42.690;23.328;2023-08-30T10:04:44;10.27;;;5.10;;
29984;SDS011;17387;42.690;23.328;2023-08-30T10:07:11;10.35;;;5.38;;
29984;SDS011;17387;42.690;23.328;2023-08-30T10:09:37;9.80;;;5.05;;
29984;SDS011;17387;42.690;23.328;2023-08-30T10:12:03;7.55;;;4.70;;
29984;SDS011;17387;42.690;23.328;2023-08-30T10:14:28;6.78;;;5.10;;
29984;SDS011;17387;42.690;23.328;2023-08-30T10:16:58;8.02;;;5.05;;
29984;SDS011;17387;42.690;23.328;2023-08-30T10:19:27;7.32;;;5.20;;
29984;SDS011;17387;42.690;23.328;2023-08-30T10:22:02;6.75;;;4.88;;
29984;SDS011;17387;42.690;23.328;2023-08-30T10:24:28;9.45;;;5.32;;
29984;SDS011;17387;42.690;23.328;2023-08-30T10:26:54;13.05;;;7.40;;
29984;SDS011;17387;42.690;23.328;2023-08-30T10:29:21;9.75;;;5.38;;
29984;SDS011;17387;42.690;23.328;2023-08-30T10:31:48;12.00;;;6.25;;
29984;SDS011;17387;42.690;23.328;2023-08-30T10:34:14;8.77;;;4.80;;
29984;SDS011;17387;42.690;23.328;2023-08-30T10:36:41;6.20;;;4.43;;
29984;SDS011;17387;42.690;23.328;2023-08-30T10:39:11;12.13;;;5.97;;
29984;SDS011;17387;42.690;23.328;2023-08-30T10:41:36;8.27;;;5.68;;
29984;SDS011;17387;42.690;23.328;2023-08-30T10:44:01;9.67;;;5.20;;
29984;SDS011;17387;42.690;23.328;2023-08-30T10:46:29;7.75;;;5.00;;
29984;SDS011;17387;42.690;23.328;2023-08-30T10:48:54;8.05;;;5.40;;
29984;SDS011;17387;42.690;23.328;2023-08-30T10:51:23;8.05;;;5.72;;
29984;SDS011;17387;42.690;23.328;2023-08-30T10:53:59;6.97;;;5.18;;
29984;SDS011;17387;42.690;23.328;2023-08-30T10:56:28;8.80;;;5.13;;
29984;SDS011;17387;42.690;23.328;2023-08-30T10:58:54;12.18;;;7.05;;
29984;SDS011;17387;42.690;23.328;2023-08-30T11:01:19;10.17;;;5.17;;
29984;SDS011;17387;42.690;23.328;2023-08-30T11:03:45;8.35;;;5.55;;
29984;SDS011;17387;42.690;23.328;2023-08-30T11:06:14;12.23;;;5.97;;
29984;SDS011;17387;42.690;23.328;2023-08-30T11:08:39;13.20;;;5.50;;
29984;SDS011;17387;42.690;23.328;2023-08-30T11:11:05;7.70;;;5.40;;
29984;SDS011;17387;42.690;23.328;2023-08-30T11:13:30;9.32;;;5.53;;
29984;SDS011;17387;42.690;23.328;2023-08-30T11:16:04;11.67;;;5.97;;
29984;SDS011;17387;42.690;23.328;2023-08-30T11:18:30;10.18;;;5.60;;
29984;SDS011;17387;42.690;23.328;2023-08-30T11:21:01;11.10;;;5.70;;
29984;SDS011;17387;42.690;23.328;2023-08-30T11:23:26;8.32;;;5.97;;
29984;SDS011;17387;42.690;23.328;2023-08-30T11:25:51;10.40;;;6.45;;
29984;SDS011;17387;42.690;23.328;2023-08-30T11:28:23;11.63;;;6.38;;
29984;SDS011;17387;42.690;23.328;2023-08-30T11:30:49;8.43;;;6.00;;
29984;SDS011;17387;42.690;23.328;2023-08-30T11:33:17;6.10;;;4.93;;
29984;SDS011;17387;42.690;23.328;2023-08-30T11:35:43;11.75;;;8.13;;
29984;SDS011;17387;42.690;23.328;2023-08-30T11:38:09;11.43;;;7.70;;
29984;SDS011;17387;42.690;23.328;2023-08-30T11:40:34;12.10;;;6.53;;
29984;SDS011;17387;42.690;23.328;2023-08-30T11:43:00;12.83;;;6.60;;
29984;SDS011;17387;42.690;23.328;2023-08-30T11:45:26;12.20;;;7.63;;
29984;SDS011;17387;42.690;23.328;2023-08-30T11:47:51;7.00;;;5.40;;
29984;SDS011;17387;42.690;23.328;2023-08-30T11:50:17;7.72;;;5.70;;
29984;SDS011;17387;42.690;23.328;2023-08-30T11:52:44;11.85;;;8.65;;
29984;SDS011;17387;42.690;23.328;2023-08-30T11:55:09;10.75;;;7.70;;
29984;SDS011;17387;42.690;23.328;2023-08-30T11:57:38;6.72;;;5.07;;
29984;SDS011;17387;42.690;23.328;2023-08-30T12:00:09;7.55;;;5.22;;
29984;SDS011;17387;42.690;23.328;2023-08-30T12:02:35;16.88;;;7.88;;
29984;SDS011;17387;42.690;23.328;2023-08-30T12:05:00;9.23;;;5.28;;
29984;SDS011;17387;42.690;23.328;2023-08-30T12:07:26;6.77;;;5.20;;
29984;SDS011;17387;42.690;23.328;2023-08-30T12:09:51;7.55;;;5.10;;
29984;SDS011;17387;42.690;23.328;2023-08-30T12:12:16;7.78;;;6.45;;
29984;SDS011;17387;42.690;23.328;2023-08-30T12:14:42;6.43;;;5.57;;
29984;SDS011;17387;42.690;23.328;2023-08-30T12:17:08;10.07;;;6.00;;
29984;SDS011;17387;42.690;23.328;2023-08-30T12:19:33;8.95;;;5.40;;
29984;SDS011;17387;42.690;23.328;2023-08-30T12:22:05;9.10;;;5.70;;
29984;SDS011;17387;42.690;23.328;2023-08-30T12:24:41;9.27;;;5.93;;
29984;SDS011;17387;42.690;23.328;2023-08-30T12:27:06;7.22;;;5.75;;
29984;SDS011;17387;42.690;23.328;2023-08-30T12:29:31;8.57;;;5.20;;
29984;SDS011;17387;42.690;23.328;2023-08-30T12:31:56;8.63;;;5.30;;
29984;SDS011;17387;42.690;23.328;2023-08-30T12:34:22;7.23;;;5.53;;
29984;SDS011;17387;42.690;23.328;2023-08-30T12:36:47;9.80;;;5.97;;
29984;SDS011;17387;42.690;23.328;2023-08-30T12:39:12;11.00;;;6.20;;
29984;SDS011;17387;42.690;23.328;2023-08-30T12:41:38;7.05;;;5.80;;
29984;SDS011;17387;42.690;23.328;2023-08-30T12:44:04;12.05;;;5.97;;
29984;SDS011;17387;42.690;23.328;2023-08-30T12:46:29;7.38;;;5.55;;
29984;SDS011;17387;42.690;23.328;2023-08-30T12:48:54;9.13;;;5.70;;
29984;SDS011;17387;42.690;23.328;2023-08-30T12:51:20;7.63;;;5.33;;
29984;SDS011;17387;42.690;23.328;2023-08-30T12:53:45;9.27;;;5.50;;
29984;SDS011;17387;42.690;23.328;2023-08-30T12:56:10;7.33;;;5.47;;
29984;SDS011;17387;42.690;23.328;2023-08-30T12:58:35;8.50;;;5.63;;
29984;SDS011;17387;42.690;23.328;2023-08-30T13:01:01;9.07;;;5.53;;
29984;SDS011;17387;42.690;23.328;2023-08-30T13:03:26;6.77;;;4.93;;
29984;SDS011;17387;42.690;23.328;2023-08-30T13:05:51;7.57;;;4.93;;
29984;SDS011;17387;42.690;23.328;2023-08-30T13:08:17;8.77;;;5.32;;
29984;SDS011;17387;42.690;23.328;2023-08-30T13:10:42;7.10;;;4.75;;
29984;SDS011;17387;42.690;23.328;2023-08-30T13:13:11;6.68;;;4.82;;
29984;SDS011;17387;42.690;23.328;2023-08-30T13:15:37;8.98;;;4.75;;
29984;SDS011;17387;42.690;23.328;2023-08-30T13:18:02;6.73;;;4.87;;
29984;SDS011;17387;42.690;23.328;2023-08-30T13:20:27;6.90;;;4.80;;
29984;SDS011;17387;42.690;23.328;2023-08-30T13:22:53;6.87;;;4.80;;
29984;SDS011;17387;42.690;23.328;2023-08-30T13:25:18;5.63;;;4.57;;
29984;SDS011;17387;42.690;23.328;2023-08-30T13:27:43;7.07;;;4.43;;
29984;SDS011;17387;42.690;23.328;2023-08-30T13:30:09;6.10;;;4.63;;
29984;SDS011;17387;42.690;23.328;2023-08-30T13:32:34;7.60;;;4.95;;
29984;SDS011;17387;42.690;23.328;2023-08-30T13:35:00;6.70;;;4.60;;
29984;SDS011;17387;42.690;23.328;2023-08-30T13:37:25;4.83;;;4.07;;
29984;SDS011;17387;42.690;23.328;2023-08-30T13:39:52;7.47;;;4.43;;
29984;SDS011;17387;42.690;23.328;2023-08-30T13:42:17;5.55;;;4.53;;
29984;SDS011;17387;42.690;23.328;2023-08-30T13:44:42;6.07;;;4.57;;
29984;SDS011;17387;42.690;23.328;2023-08-30T13:47:08;9.63;;;5.32;;
29984;SDS011;17387;42.690;23.328;2023-08-30T13:49:35;8.27;;;5.07;;
29984;SDS011;17387;42.690;23.328;2023-08-30T13:52:00;6.53;;;3.90;;
29984;SDS011;17387;42.690;23.328;2023-08-30T13:54:25;9.50;;;5.33;;
29984;SDS011;17387;42.690;23.328;2023-08-30T13:56:51;5.50;;;4.20;;
29984;SDS011;17387;42.690;23.328;2023-08-30T13:59:16;7.70;;;4.60;;
29984;SDS011;17387;42.690;23.328;2023-08-30T14:01:42;8.30;;;4.70;;
29984;SDS011;17387;42.690;23.328;2023-08-30T14:04:07;7.80;;;5.17;;
29984;SDS011;17387;42.690;23.328;2023-08-30T14:06:32;8.88;;;5.22;;
29984;SDS011;17387;42.690;23.328;2023-08-30T14:08:58;7.88;;;4.72;;
29984;SDS011;17387;42.690;23.328;2023-08-30T14:11:23;6.25;;;4.38;;
29984;SDS011;17387;42.690;23.328;2023-08-30T14:13:48;7.13;;;4.40;;
29984;SDS011;17387;42.690;23.328;2023-08-30T14:16:14;7.00;;;4.40;;
29984;SDS011;17387;42.690;23.328;2023-08-30T14:18:39;5.67;;;4.43;;
29984;SDS011;17387;42.690;23.328;2023-08-30T14:21:05;7.80;;;4.57;;
29984;SDS011;17387;42.690;23.328;2023-08-30T14:23:30;8.77;;;5.00;;
29984;SDS011;17387;42.690;23.328;2023-08-30T14:26:13;5.00;;;4.10;;